createdAt,value
2018-03-02T15:12:59.286Z,58.4
2018-03-02T15:22:58.724Z,75.9
2018-03-02T15:32:58.196Z,83.9
2018-03-02T15:42:57.646Z,84.5
2018-03-02T15:52:57.515Z,87.6
2018-03-02T16:02:56.994Z,87.2
2018-03-02T16:12:56.695Z,88.2
2018-03-02T16:22:56.217Z,94.3
2018-03-02T16:33:27.077Z,102.3
2018-03-02T16:43:44.137Z,95.8
2018-03-02T16:53:43.578Z,137.5
2018-03-02T17:03:43.233Z,100.3
2018-03-02T17:13:42.800Z,119
2018-03-02T17:23:42.431Z,100.6
2018-03-02T17:33:41.937Z,254.4
2018-03-02T17:43:41.427Z,284.3
2018-03-02T17:53:40.819Z,220
2018-03-02T18:03:40.738Z,164.5
2018-03-02T18:13:40.257Z,154
2018-03-02T18:23:39.654Z,104.7
2018-03-02T18:33:39.513Z,103.1
2018-03-02T18:43:38.941Z,111.8
2018-03-02T18:53:38.393Z,109.5
2018-03-02T19:03:37.922Z,119.9
2018-03-02T19:13:37.500Z,128.4
2018-03-02T19:23:37.184Z,137.2
2018-03-02T19:33:37.094Z,129.7
2018-03-02T19:43:37.601Z,126.3
2018-03-02T19:53:37.693Z,119.9
2018-03-02T20:03:37.982Z,111.4
2018-03-02T20:13:37.696Z,121.3
2018-03-02T20:23:37.680Z,113.9
2018-03-02T20:33:37.159Z,118
2018-03-02T20:43:36.938Z,116.5
2018-03-02T20:53:36.334Z,117.8
2018-03-02T21:03:35.756Z,139.6
2018-03-02T21:13:35.212Z,146.4
2018-03-02T21:23:34.863Z,136.8
2018-03-02T21:33:34.574Z,167.5
2018-03-02T21:43:33.912Z,161.3
2018-03-02T21:53:33.464Z,142.3
2018-03-02T22:03:32.886Z,146
2018-03-02T22:13:32.339Z,134.3
2018-03-02T22:23:32.033Z,105.4
2018-03-02T22:33:31.384Z,106.3
2018-03-02T22:43:30.986Z,127.8
2018-03-02T22:53:30.577Z,125.3
2018-03-02T23:03:30.073Z,137.3
2018-03-02T23:13:29.545Z,132.5
2018-03-02T23:23:29.095Z,136.3
2018-03-02T23:33:28.454Z,127.7
2018-03-02T23:43:27.754Z,138.7
2018-03-02T23:53:27.085Z,140.1
